sensor_id;sensor_type;location;lat;lon;timestamp;P1;durP1;ratioP1;P2;durP2;ratioP2
48205;SDS011;33995;48.202;16.260;2024-01-27T00:01:30;1.90;;;1.00;;
48205;SDS011;33995;48.202;16.260;2024-01-27T00:03:57;1.50;;;0.90;;
48205;SDS011;33995;48.202;16.260;2024-01-27T00:06:25;1.97;;;0.90;;
48205;SDS011;33995;48.202;16.260;2024-01-27T00:08:51;0.80;;;0.70;;
48205;SDS011;33995;48.202;16.260;2024-01-27T00:11:19;1.37;;;0.67;;
48205;SDS011;33995;48.202;16.260;2024-01-27T00:13:49;0.70;;;0.70;;
48205;SDS011;33995;48.202;16.260;2024-01-27T00:16:16;1.00;;;0.70;;
48205;SDS011;33995;48.202;16.260;2024-01-27T00:18:46;1.40;;;0.93;;
48205;SDS011;33995;48.202;16.260;2024-01-27T00:21:13;1.13;;;0.60;;
48205;SDS011;33995;48.202;16.260;2024-01-27T00:23:43;1.13;;;0.70;;
48205;SDS011;33995;48.202;16.260;2024-01-27T00:26:10;1.33;;;0.80;;
48205;SDS011;33995;48.202;16.260;2024-01-27T00:28:42;1.60;;;0.70;;
48205;SDS011;33995;48.202;16.260;2024-01-27T00:31:09;1.30;;;0.63;;
48205;SDS011;33995;48.202;16.260;2024-01-27T00:33:37;1.17;;;0.50;;
48205;SDS011;33995;48.202;16.260;2024-01-27T00:36:07;1.10;;;0.50;;
48205;SDS011;33995;48.202;16.260;2024-01-27T00:38:34;0.97;;;0.60;;
48205;SDS011;33995;48.202;16.260;2024-01-27T00:41:02;2.20;;;0.73;;
48205;SDS011;33995;48.202;16.260;2024-01-27T00:43:29;0.47;;;0.47;;
48205;SDS011;33995;48.202;16.260;2024-01-27T00:45:56;0.53;;;0.50;;
48205;SDS011;33995;48.202;16.260;2024-01-27T00:48:23;0.90;;;0.60;;
48205;SDS011;33995;48.202;16.260;2024-01-27T00:50:56;1.20;;;0.87;;
48205;SDS011;33995;48.202;16.260;2024-01-27T00:53:23;1.43;;;0.97;;
48205;SDS011;33995;48.202;16.260;2024-01-27T00:55:50;1.23;;;0.97;;
48205;SDS011;33995;48.202;16.260;2024-01-27T00:58:18;1.43;;;1.00;;
48205;SDS011;33995;48.202;16.260;2024-01-27T01:00:50;2.17;;;1.00;;
48205;SDS011;33995;48.202;16.260;2024-01-27T01:03:19;1.43;;;1.03;;
48205;SDS011;33995;48.202;16.260;2024-01-27T01:05:49;2.93;;;1.23;;
48205;SDS011;33995;48.202;16.260;2024-01-27T01:08:16;1.77;;;1.00;;
48205;SDS011;33995;48.202;16.260;2024-01-27T01:10:43;1.97;;;1.00;;
48205;SDS011;33995;48.202;16.260;2024-01-27T01:13:10;1.33;;;1.00;;
48205;SDS011;33995;48.202;16.260;2024-01-27T01:15:40;2.20;;;1.10;;
48205;SDS011;33995;48.202;16.260;2024-01-27T01:18:07;2.07;;;1.10;;
48205;SDS011;33995;48.202;16.260;2024-01-27T01:20:38;1.20;;;0.93;;
48205;SDS011;33995;48.202;16.260;2024-01-27T01:23:05;1.87;;;1.03;;
48205;SDS011;33995;48.202;16.260;2024-01-27T01:25:34;1.50;;;1.20;;
48205;SDS011;33995;48.202;16.260;2024-01-27T01:28:03;1.87;;;1.17;;
48205;SDS011;33995;48.202;16.260;2024-01-27T01:30:30;2.30;;;1.37;;
48205;SDS011;33995;48.202;16.260;2024-01-27T01:32:57;2.60;;;1.27;;
48205;SDS011;33995;48.202;16.260;2024-01-27T01:35:25;1.60;;;1.20;;
48205;SDS011;33995;48.202;16.260;2024-01-27T01:37:55;1.90;;;1.30;;
48205;SDS011;33995;48.202;16.260;2024-01-27T01:40:22;1.63;;;1.30;;
48205;SDS011;33995;48.202;16.260;2024-01-27T01:42:52;2.10;;;1.50;;
48205;SDS011;33995;48.202;16.260;2024-01-27T01:45:19;1.53;;;1.30;;
48205;SDS011;33995;48.202;16.260;2024-01-27T01:47:49;2.20;;;1.30;;
48205;SDS011;33995;48.202;16.260;2024-01-27T01:50:20;2.93;;;1.50;;
48205;SDS011;33995;48.202;16.260;2024-01-27T01:52:48;1.97;;;1.10;;
48205;SDS011;33995;48.202;16.260;2024-01-27T01:55:22;2.50;;;1.33;;
48205;SDS011;33995;48.202;16.260;2024-01-27T01:57:50;2.43;;;1.60;;
48205;SDS011;33995;48.202;16.260;2024-01-27T02:00:18;3.07;;;1.60;;
48205;SDS011;33995;48.202;16.260;2024-01-27T02:06:11;1.60;;;1.47;;
48205;SDS011;33995;48.202;16.260;2024-01-27T02:08:38;1.73;;;1.40;;
48205;SDS011;33995;48.202;16.260;2024-01-27T02:11:07;2.57;;;1.70;;
48205;SDS011;33995;48.202;16.260;2024-01-27T02:13:35;3.10;;;1.70;;
48205;SDS011;33995;48.202;16.260;2024-01-27T02:16:05;2.57;;;1.70;;
48205;SDS011;33995;48.202;16.260;2024-01-27T02:18:36;2.77;;;1.60;;
48205;SDS011;33995;48.202;16.260;2024-01-27T02:21:03;2.03;;;1.50;;
48205;SDS011;33995;48.202;16.260;2024-01-27T02:23:31;2.40;;;1.60;;
48205;SDS011;33995;48.202;16.260;2024-01-27T02:25:58;4.03;;;1.70;;
48205;SDS011;33995;48.202;16.260;2024-01-27T02:28:25;2.00;;;1.60;;
48205;SDS011;33995;48.202;16.260;2024-01-27T02:30:54;2.77;;;1.70;;
48205;SDS011;33995;48.202;16.260;2024-01-27T02:33:23;2.27;;;1.70;;
48205;SDS011;33995;48.202;16.260;2024-01-27T02:35:53;3.63;;;1.70;;
48205;SDS011;33995;48.202;16.260;2024-01-27T02:38:23;3.57;;;1.60;;
48205;SDS011;33995;48.202;16.260;2024-01-27T02:40:50;1.70;;;1.60;;
48205;SDS011;33995;48.202;16.260;2024-01-27T02:43:17;2.30;;;1.47;;
48205;SDS011;33995;48.202;16.260;2024-01-27T02:45:44;1.77;;;1.60;;
48205;SDS011;33995;48.202;16.260;2024-01-27T02:48:11;3.13;;;1.80;;
48205;SDS011;33995;48.202;16.260;2024-01-27T02:50:38;1.77;;;1.60;;
48205;SDS011;33995;48.202;16.260;2024-01-27T02:53:08;2.43;;;1.60;;
48205;SDS011;33995;48.202;16.260;2024-01-27T02:55:35;2.33;;;1.70;;
48205;SDS011;33995;48.202;16.260;2024-01-27T02:58:05;2.70;;;1.57;;
48205;SDS011;33995;48.202;16.260;2024-01-27T03:00:34;2.53;;;1.60;;
48205;SDS011;33995;48.202;16.260;2024-01-27T03:03:03;3.70;;;1.70;;
48205;SDS011;33995;48.202;16.260;2024-01-27T03:05:31;3.27;;;1.77;;
48205;SDS011;33995;48.202;16.260;2024-01-27T03:08:00;2.37;;;1.50;;
48205;SDS011;33995;48.202;16.260;2024-01-27T03:10:27;2.50;;;1.60;;
48205;SDS011;33995;48.202;16.260;2024-01-27T03:12:58;1.90;;;1.70;;
48205;SDS011;33995;48.202;16.260;2024-01-27T03:15:25;3.47;;;2.03;;
48205;SDS011;33995;48.202;16.260;2024-01-27T03:17:52;2.43;;;1.90;;
48205;SDS011;33995;48.202;16.260;2024-01-27T03:20:19;2.67;;;1.90;;
48205;SDS011;33995;48.202;16.260;2024-01-27T03:22:47;2.13;;;1.73;;
48205;SDS011;33995;48.202;16.260;2024-01-27T03:25:15;3.37;;;2.00;;
48205;SDS011;33995;48.202;16.260;2024-01-27T03:27:42;3.33;;;1.93;;
48205;SDS011;33995;48.202;16.260;2024-01-27T03:30:09;3.03;;;2.00;;
48205;SDS011;33995;48.202;16.260;2024-01-27T03:32:36;2.30;;;1.90;;
48205;SDS011;33995;48.202;16.260;2024-01-27T03:35:03;3.30;;;2.10;;
48205;SDS011;33995;48.202;16.260;2024-01-27T03:37:34;2.40;;;1.93;;
48205;SDS011;33995;48.202;16.260;2024-01-27T03:40:01;4.77;;;2.20;;
48205;SDS011;33995;48.202;16.260;2024-01-27T03:42:31;3.50;;;2.50;;
48205;SDS011;33995;48.202;16.260;2024-01-27T03:44:58;3.30;;;2.20;;
48205;SDS011;33995;48.202;16.260;2024-01-27T03:47:25;3.23;;;2.53;;
48205;SDS011;33995;48.202;16.260;2024-01-27T03:49:55;3.07;;;2.20;;
48205;SDS011;33995;48.202;16.260;2024-01-27T03:52:25;3.20;;;2.33;;
48205;SDS011;33995;48.202;16.260;2024-01-27T03:54:55;5.13;;;2.40;;
48205;SDS011;33995;48.202;16.260;2024-01-27T03:57:22;3.57;;;2.40;;
48205;SDS011;33995;48.202;16.260;2024-01-27T03:59:49;4.13;;;2.30;;
48205;SDS011;33995;48.202;16.260;2024-01-27T04:02:16;4.17;;;2.50;;
48205;SDS011;33995;48.202;16.260;2024-01-27T04:04:43;3.57;;;2.30;;
48205;SDS011;33995;48.202;16.260;2024-01-27T04:07:10;4.03;;;2.33;;
48205;SDS011;33995;48.202;16.260;2024-01-27T04:09:37;4.87;;;2.30;;
48205;SDS011;33995;48.202;16.260;2024-01-27T04:12:05;3.47;;;2.23;;
48205;SDS011;33995;48.202;16.260;2024-01-27T04:14:32;3.03;;;2.13;;
48205;SDS011;33995;48.202;16.260;2024-01-27T04:16:59;3.57;;;2.40;;
48205;SDS011;33995;48.202;16.260;2024-01-27T04:19:26;4.13;;;2.10;;
48205;SDS011;33995;48.202;16.260;2024-01-27T04:21:53;4.77;;;2.30;;
48205;SDS011;33995;48.202;16.260;2024-01-27T04:24:20;3.30;;;2.33;;
48205;SDS011;33995;48.202;16.260;2024-01-27T04:26:47;4.00;;;2.40;;
48205;SDS011;33995;48.202;16.260;2024-01-27T04:29:14;3.07;;;2.40;;
48205;SDS011;33995;48.202;16.260;2024-01-27T04:31:41;4.30;;;2.60;;
48205;SDS011;33995;48.202;16.260;2024-01-27T04:34:12;4.43;;;2.50;;
48205;SDS011;33995;48.202;16.260;2024-01-27T04:36:39;3.27;;;2.33;;
48205;SDS011;33995;48.202;16.260;2024-01-27T04:39:10;3.60;;;2.27;;
48205;SDS011;33995;48.202;16.260;2024-01-27T04:41:41;4.43;;;2.27;;
48205;SDS011;33995;48.202;16.260;2024-01-27T04:44:10;3.07;;;2.20;;
48205;SDS011;33995;48.202;16.260;2024-01-27T04:46:37;3.63;;;2.17;;
48205;SDS011;33995;48.202;16.260;2024-01-27T04:49:04;4.83;;;2.20;;
48205;SDS011;33995;48.202;16.260;2024-01-27T04:51:31;4.23;;;2.30;;
48205;SDS011;33995;48.202;16.260;2024-01-27T04:53:58;2.90;;;2.17;;
48205;SDS011;33995;48.202;16.260;2024-01-27T04:56:25;4.60;;;2.20;;
48205;SDS011;33995;48.202;16.260;2024-01-27T04:58:52;3.23;;;2.30;;
48205;SDS011;33995;48.202;16.260;2024-01-27T05:01:19;5.00;;;2.30;;
48205;SDS011;33995;48.202;16.260;2024-01-27T05:03:47;5.23;;;2.50;;
48205;SDS011;33995;48.202;16.260;2024-01-27T05:06:14;5.57;;;2.60;;
48205;SDS011;33995;48.202;16.260;2024-01-27T05:08:42;5.00;;;2.83;;
48205;SDS011;33995;48.202;16.260;2024-01-27T05:11:12;5.13;;;3.17;;
48205;SDS011;33995;48.202;16.260;2024-01-27T05:13:40;5.87;;;3.30;;
48205;SDS011;33995;48.202;16.260;2024-01-27T05:16:06;4.07;;;3.10;;
48205;SDS011;33995;48.202;16.260;2024-01-27T05:18:36;5.60;;;3.00;;
48205;SDS011;33995;48.202;16.260;2024-01-27T05:21:04;5.03;;;2.37;;
48205;SDS011;33995;48.202;16.260;2024-01-27T05:23:31;4.07;;;2.53;;
48205;SDS011;33995;48.202;16.260;2024-01-27T05:25:58;5.30;;;2.63;;
48205;SDS011;33995;48.202;16.260;2024-01-27T05:28:25;4.20;;;2.60;;
48205;SDS011;33995;48.202;16.260;2024-01-27T05:30:52;3.60;;;2.40;;
48205;SDS011;33995;48.202;16.260;2024-01-27T05:33:22;4.10;;;2.77;;
48205;SDS011;33995;48.202;16.260;2024-01-27T05:35:50;3.40;;;2.40;;
48205;SDS011;33995;48.202;16.260;2024-01-27T05:38:18;4.27;;;2.47;;
48205;SDS011;33995;48.202;16.260;2024-01-27T05:40:45;4.07;;;2.43;;
48205;SDS011;33995;48.202;16.260;2024-01-27T05:43:13;4.90;;;2.30;;
48205;SDS011;33995;48.202;16.260;2024-01-27T05:45:40;4.73;;;2.50;;
48205;SDS011;33995;48.202;16.260;2024-01-27T05:48:07;3.80;;;2.30;;
48205;SDS011;33995;48.202;16.260;2024-01-27T05:50:35;3.73;;;2.50;;
48205;SDS011;33995;48.202;16.260;2024-01-27T05:53:03;3.03;;;2.57;;
48205;SDS011;33995;48.202;16.260;2024-01-27T05:55:30;3.77;;;2.60;;
48205;SDS011;33995;48.202;16.260;2024-01-27T05:57:57;4.20;;;2.60;;
48205;SDS011;33995;48.202;16.260;2024-01-27T06:00:24;4.30;;;2.73;;
48205;SDS011;33995;48.202;16.260;2024-01-27T06:02:51;4.87;;;2.70;;
48205;SDS011;33995;48.202;16.260;2024-01-27T06:05:18;3.80;;;2.53;;
48205;SDS011;33995;48.202;16.260;2024-01-27T06:07:45;4.77;;;2.77;;
48205;SDS011;33995;48.202;16.260;2024-01-27T06:10:14;4.33;;;2.57;;
48205;SDS011;33995;48.202;16.260;2024-01-27T06:12:41;5.60;;;2.93;;
48205;SDS011;33995;48.202;16.260;2024-01-27T06:15:08;4.37;;;2.67;;
48205;SDS011;33995;48.202;16.260;2024-01-27T06:17:37;5.17;;;2.83;;
48205;SDS011;33995;48.202;16.260;2024-01-27T06:20:04;4.60;;;2.77;;
48205;SDS011;33995;48.202;16.260;2024-01-27T06:22:34;4.30;;;2.70;;
48205;SDS011;33995;48.202;16.260;2024-01-27T06:25:01;3.63;;;2.77;;
48205;SDS011;33995;48.202;16.260;2024-01-27T06:27:28;5.40;;;2.60;;
48205;SDS011;33995;48.202;16.260;2024-01-27T06:29:55;4.50;;;2.80;;
48205;SDS011;33995;48.202;16.260;2024-01-27T06:32:22;4.10;;;2.63;;
48205;SDS011;33995;48.202;16.260;2024-01-27T06:34:51;3.70;;;2.60;;
48205;SDS011;33995;48.202;16.260;2024-01-27T06:37:19;2.83;;;2.40;;
48205;SDS011;33995;48.202;16.260;2024-01-27T06:39:48;3.83;;;2.43;;
48205;SDS011;33995;48.202;16.260;2024-01-27T06:42:16;4.37;;;2.60;;
48205;SDS011;33995;48.202;16.260;2024-01-27T06:44:42;4.03;;;2.40;;
48205;SDS011;33995;48.202;16.260;2024-01-27T06:47:10;3.97;;;2.63;;
48205;SDS011;33995;48.202;16.260;2024-01-27T06:49:36;3.70;;;2.57;;
48205;SDS011;33995;48.202;16.260;2024-01-27T06:52:04;4.07;;;2.60;;
48205;SDS011;33995;48.202;16.260;2024-01-27T06:54:31;5.13;;;3.07;;
48205;SDS011;33995;48.202;16.260;2024-01-27T06:56:59;5.27;;;2.90;;
48205;SDS011;33995;48.202;16.260;2024-01-27T06:59:29;4.07;;;2.80;;
48205;SDS011;33995;48.202;16.260;2024-01-27T07:01:56;4.97;;;2.87;;
48205;SDS011;33995;48.202;16.260;2024-01-27T07:04:23;4.77;;;2.60;;
48205;SDS011;33995;48.202;16.260;2024-01-27T07:06:50;6.20;;;2.70;;
48205;SDS011;33995;48.202;16.260;2024-01-27T07:09:17;5.17;;;2.90;;
48205;SDS011;33995;48.202;16.260;2024-01-27T07:11:48;3.77;;;2.60;;
48205;SDS011;33995;48.202;16.260;2024-01-27T07:14:19;4.50;;;2.80;;
48205;SDS011;33995;48.202;16.260;2024-01-27T07:16:49;4.03;;;2.90;;
48205;SDS011;33995;48.202;16.260;2024-01-27T07:19:16;6.03;;;3.30;;
48205;SDS011;33995;48.202;16.260;2024-01-27T07:21:43;3.60;;;2.77;;
48205;SDS011;33995;48.202;16.260;2024-01-27T07:24:10;3.07;;;2.70;;
48205;SDS011;33995;48.202;16.260;2024-01-27T07:26:37;3.90;;;2.80;;
48205;SDS011;33995;48.202;16.260;2024-01-27T07:29:04;4.97;;;2.93;;
48205;SDS011;33995;48.202;16.260;2024-01-27T07:31:34;3.20;;;2.67;;
48205;SDS011;33995;48.202;16.260;2024-01-27T07:34:02;4.97;;;3.10;;
48205;SDS011;33995;48.202;16.260;2024-01-27T07:36:29;4.37;;;2.70;;
48205;SDS011;33995;48.202;16.260;2024-01-27T07:38:59;3.43;;;2.57;;
48205;SDS011;33995;48.202;16.260;2024-01-27T07:41:28;4.90;;;3.33;;
48205;SDS011;33995;48.202;16.260;2024-01-27T07:43:57;5.47;;;3.40;;
48205;SDS011;33995;48.202;16.260;2024-01-27T07:46:39;5.67;;;2.90;;
48205;SDS011;33995;48.202;16.260;2024-01-27T07:49:07;4.57;;;2.90;;
48205;SDS011;33995;48.202;16.260;2024-01-27T07:51:34;7.00;;;3.10;;
48205;SDS011;33995;48.202;16.260;2024-01-27T07:54:01;4.67;;;3.00;;
48205;SDS011;33995;48.202;16.260;2024-01-27T07:56:29;3.60;;;2.80;;
48205;SDS011;33995;48.202;16.260;2024-01-27T07:58:57;4.33;;;3.10;;
48205;SDS011;33995;48.202;16.260;2024-01-27T08:01:27;4.07;;;2.83;;
48205;SDS011;33995;48.202;16.260;2024-01-27T08:03:54;4.67;;;2.70;;
48205;SDS011;33995;48.202;16.260;2024-01-27T08:06:26;4.80;;;2.87;;
48205;SDS011;33995;48.202;16.260;2024-01-27T08:08:54;4.63;;;3.10;;
48205;SDS011;33995;48.202;16.260;2024-01-27T08:11:22;5.83;;;3.10;;
48205;SDS011;33995;48.202;16.260;2024-01-27T08:13:49;4.33;;;2.70;;
48205;SDS011;33995;48.202;16.260;2024-01-27T08:16:16;5.03;;;2.93;;
48205;SDS011;33995;48.202;16.260;2024-01-27T08:18:43;6.90;;;3.23;;
48205;SDS011;33995;48.202;16.260;2024-01-27T08:21:14;3.97;;;2.90;;
48205;SDS011;33995;48.202;16.260;2024-01-27T08:23:41;4.07;;;2.87;;
48205;SDS011;33995;48.202;16.260;2024-01-27T08:26:08;5.20;;;3.00;;
48205;SDS011;33995;48.202;16.260;2024-01-27T08:28:35;4.27;;;3.03;;
48205;SDS011;33995;48.202;16.260;2024-01-27T08:31:05;3.90;;;2.83;;
48205;SDS011;33995;48.202;16.260;2024-01-27T08:33:32;4.50;;;3.00;;
48205;SDS011;33995;48.202;16.260;2024-01-27T08:35:59;4.90;;;2.90;;
48205;SDS011;33995;48.202;16.260;2024-01-27T08:38:26;5.47;;;3.13;;
48205;SDS011;33995;48.202;16.260;2024-01-27T08:40:53;6.13;;;3.10;;
48205;SDS011;33995;48.202;16.260;2024-01-27T08:43:23;5.80;;;3.30;;
48205;SDS011;33995;48.202;16.260;2024-01-27T08:45:51;4.70;;;3.10;;
48205;SDS011;33995;48.202;16.260;2024-01-27T08:48:18;4.17;;;3.10;;
48205;SDS011;33995;48.202;16.260;2024-01-27T08:50:45;5.20;;;3.13;;
48205;SDS011;33995;48.202;16.260;2024-01-27T08:53:12;4.60;;;2.80;;
48205;SDS011;33995;48.202;16.260;2024-01-27T08:55:39;6.23;;;2.87;;
48205;SDS011;33995;48.202;16.260;2024-01-27T08:58:07;4.50;;;3.20;;
48205;SDS011;33995;48.202;16.260;2024-01-27T09:00:34;5.53;;;2.97;;
48205;SDS011;33995;48.202;16.260;2024-01-27T09:03:01;5.67;;;3.53;;
48205;SDS011;33995;48.202;16.260;2024-01-27T09:05:29;4.97;;;3.20;;
48205;SDS011;33995;48.202;16.260;2024-01-27T09:07:57;6.07;;;3.43;;
48205;SDS011;33995;48.202;16.260;2024-01-27T09:10:25;6.23;;;3.20;;
48205;SDS011;33995;48.202;16.260;2024-01-27T09:12:56;5.60;;;3.53;;
48205;SDS011;33995;48.202;16.260;2024-01-27T09:15:24;6.47;;;3.47;;
48205;SDS011;33995;48.202;16.260;2024-01-27T09:17:51;5.77;;;3.60;;
48205;SDS011;33995;48.202;16.260;2024-01-27T09:20:18;5.87;;;4.20;;
48205;SDS011;33995;48.202;16.260;2024-01-27T09:22:46;6.10;;;3.63;;
48205;SDS011;33995;48.202;16.260;2024-01-27T09:25:16;6.13;;;3.73;;
48205;SDS011;33995;48.202;16.260;2024-01-27T09:27:44;5.20;;;3.80;;
48205;SDS011;33995;48.202;16.260;2024-01-27T09:30:11;5.80;;;3.70;;
48205;SDS011;33995;48.202;16.260;2024-01-27T09:32:38;4.00;;;3.60;;
48205;SDS011;33995;48.202;16.260;2024-01-27T09:35:06;6.33;;;4.00;;
48205;SDS011;33995;48.202;16.260;2024-01-27T09:37:33;5.43;;;3.67;;
48205;SDS011;33995;48.202;16.260;2024-01-27T09:40:00;6.13;;;4.00;;
48205;SDS011;33995;48.202;16.260;2024-01-27T09:42:29;7.23;;;3.80;;
48205;SDS011;33995;48.202;16.260;2024-01-27T09:45:02;5.80;;;3.73;;
48205;SDS011;33995;48.202;16.260;2024-01-27T09:47:31;6.90;;;3.53;;
48205;SDS011;33995;48.202;16.260;2024-01-27T09:49:58;4.50;;;3.77;;
48205;SDS011;33995;48.202;16.260;2024-01-27T09:52:25;5.20;;;3.83;;
48205;SDS011;33995;48.202;16.260;2024-01-27T09:54:52;4.63;;;3.50;;
48205;SDS011;33995;48.202;16.260;2024-01-27T09:57:20;5.30;;;3.63;;
48205;SDS011;33995;48.202;16.260;2024-01-27T09:59:47;4.50;;;3.50;;
48205;SDS011;33995;48.202;16.260;2024-01-27T10:02:16;6.50;;;3.73;;
48205;SDS011;33995;48.202;16.260;2024-01-27T10:04:47;5.33;;;3.50;;
48205;SDS011;33995;48.202;16.260;2024-01-27T10:07:15;5.37;;;3.60;;
48205;SDS011;33995;48.202;16.260;2024-01-27T10:09:42;5.27;;;3.50;;
48205;SDS011;33995;48.202;16.260;2024-01-27T10:12:10;5.23;;;3.50;;
48205;SDS011;33995;48.202;16.260;2024-01-27T10:14:39;5.63;;;3.43;;
48205;SDS011;33995;48.202;16.260;2024-01-27T10:17:19;6.33;;;3.80;;
48205;SDS011;33995;48.202;16.260;2024-01-27T10:20:01;4.33;;;3.43;;
48205;SDS011;33995;48.202;16.260;2024-01-27T10:22:40;5.97;;;3.63;;
48205;SDS011;33995;48.202;16.260;2024-01-27T10:25:08;6.40;;;3.40;;
48205;SDS011;33995;48.202;16.260;2024-01-27T10:27:36;4.30;;;3.20;;
48205;SDS011;33995;48.202;16.260;2024-01-27T10:30:03;4.83;;;3.10;;
48205;SDS011;33995;48.202;16.260;2024-01-27T10:32:31;5.43;;;3.40;;
48205;SDS011;33995;48.202;16.260;2024-01-27T10:35:04;5.07;;;3.20;;
48205;SDS011;33995;48.202;16.260;2024-01-27T10:37:35;6.07;;;2.97;;
48205;SDS011;33995;48.202;16.260;2024-01-27T10:40:02;4.60;;;3.20;;
48205;SDS011;33995;48.202;16.260;2024-01-27T10:42:30;4.23;;;3.17;;
48205;SDS011;33995;48.202;16.260;2024-01-27T10:44:58;4.77;;;3.23;;
48205;SDS011;33995;48.202;16.260;2024-01-27T10:47:29;6.03;;;3.83;;
48205;SDS011;33995;48.202;16.260;2024-01-27T10:49:58;4.43;;;3.00;;
48205;SDS011;33995;48.202;16.260;2024-01-27T10:52:31;4.47;;;3.00;;
48205;SDS011;33995;48.202;16.260;2024-01-27T10:54:59;4.43;;;2.87;;
48205;SDS011;33995;48.202;16.260;2024-01-27T10:57:29;3.60;;;2.73;;
48205;SDS011;33995;48.202;16.260;2024-01-27T10:59:57;6.03;;;2.60;;
48205;SDS011;33995;48.202;16.260;2024-01-27T11:02:24;4.47;;;2.93;;
48205;SDS011;33995;48.202;16.260;2024-01-27T11:04:51;4.20;;;2.70;;
48205;SDS011;33995;48.202;16.260;2024-01-27T11:07:21;4.67;;;2.47;;
48205;SDS011;33995;48.202;16.260;2024-01-27T11:09:51;4.50;;;2.60;;
48205;SDS011;33995;48.202;16.260;2024-01-27T11:12:19;4.30;;;2.70;;
48205;SDS011;33995;48.202;16.260;2024-01-27T11:14:47;4.93;;;2.80;;
48205;SDS011;33995;48.202;16.260;2024-01-27T11:17:15;4.47;;;2.47;;
48205;SDS011;33995;48.202;16.260;2024-01-27T11:19:46;4.63;;;2.70;;
48205;SDS011;33995;48.202;16.260;2024-01-27T11:22:23;5.47;;;2.80;;
48205;SDS011;33995;48.202;16.260;2024-01-27T11:25:07;4.73;;;2.57;;
48205;SDS011;33995;48.202;16.260;2024-01-27T11:27:41;3.97;;;2.77;;
48205;SDS011;33995;48.202;16.260;2024-01-27T11:30:26;4.50;;;2.70;;
48205;SDS011;33995;48.202;16.260;2024-01-27T11:33:02;4.27;;;2.90;;
48205;SDS011;33995;48.202;16.260;2024-01-27T11:35:31;7.70;;;2.97;;
48205;SDS011;33995;48.202;16.260;2024-01-27T11:37:58;7.33;;;3.27;;
48205;SDS011;33995;48.202;16.260;2024-01-27T11:40:26;4.23;;;2.70;;
48205;SDS011;33995;48.202;16.260;2024-01-27T11:42:53;4.33;;;2.80;;
48205;SDS011;33995;48.202;16.260;2024-01-27T11:45:22;3.40;;;2.57;;
48205;SDS011;33995;48.202;16.260;2024-01-27T11:47:49;3.90;;;2.50;;
48205;SDS011;33995;48.202;16.260;2024-01-27T11:50:17;3.53;;;2.40;;
48205;SDS011;33995;48.202;16.260;2024-01-27T11:52:45;2.93;;;2.40;;
48205;SDS011;33995;48.202;16.260;2024-01-27T11:55:12;4.17;;;2.60;;
48205;SDS011;33995;48.202;16.260;2024-01-27T11:57:41;4.20;;;2.50;;
48205;SDS011;33995;48.202;16.260;2024-01-27T12:00:09;4.27;;;2.33;;
48205;SDS011;33995;48.202;16.260;2024-01-27T12:02:37;4.07;;;2.40;;
48205;SDS011;33995;48.202;16.260;2024-01-27T12:05:05;3.53;;;2.40;;
48205;SDS011;33995;48.202;16.260;2024-01-27T12:07:33;4.03;;;2.33;;
48205;SDS011;33995;48.202;16.260;2024-01-27T12:10:00;4.93;;;2.60;;
48205;SDS011;33995;48.202;16.260;2024-01-27T12:12:28;3.80;;;2.43;;
48205;SDS011;33995;48.202;16.260;2024-01-27T12:14:55;4.43;;;2.40;;
48205;SDS011;33995;48.202;16.260;2024-01-27T12:17:22;4.73;;;2.40;;
48205;SDS011;33995;48.202;16.260;2024-01-27T12:19:50;5.30;;;2.73;;
48205;SDS011;33995;48.202;16.260;2024-01-27T12:22:26;5.90;;;2.97;;
48205;SDS011;33995;48.202;16.260;2024-01-27T12:25:16;4.27;;;2.93;;
48205;SDS011;33995;48.202;16.260;2024-01-27T12:27:42;4.37;;;2.83;;
48205;SDS011;33995;48.202;16.260;2024-01-27T12:30:10;3.83;;;2.53;;
48205;SDS011;33995;48.202;16.260;2024-01-27T12:32:37;4.47;;;2.50;;
48205;SDS011;33995;48.202;16.260;2024-01-27T12:35:10;4.33;;;2.40;;
48205;SDS011;33995;48.202;16.260;2024-01-27T12:37:42;3.50;;;2.60;;
48205;SDS011;33995;48.202;16.260;2024-01-27T12:40:25;3.83;;;2.40;;
48205;SDS011;33995;48.202;16.260;2024-01-27T12:42:52;3.60;;;2.30;;
48205;SDS011;33995;48.202;16.260;2024-01-27T12:45:19;4.00;;;2.40;;
48205;SDS011;33995;48.202;16.260;2024-01-27T12:47:47;3.53;;;2.50;;
48205;SDS011;33995;48.202;16.260;2024-01-27T12:50:14;3.47;;;2.40;;
48205;SDS011;33995;48.202;16.260;2024-01-27T12:52:43;3.37;;;2.23;;
48205;SDS011;33995;48.202;16.260;2024-01-27T12:55:10;4.27;;;2.67;;
48205;SDS011;33995;48.202;16.260;2024-01-27T12:57:37;3.70;;;2.53;;
48205;SDS011;33995;48.202;16.260;2024-01-27T13:00:07;3.27;;;2.40;;
48205;SDS011;33995;48.202;16.260;2024-01-27T13:02:41;4.00;;;2.60;;
48205;SDS011;33995;48.202;16.260;2024-01-27T13:05:09;4.00;;;2.67;;
48205;SDS011;33995;48.202;16.260;2024-01-27T13:07:36;3.10;;;2.50;;
48205;SDS011;33995;48.202;16.260;2024-01-27T13:10:03;5.13;;;2.80;;
48205;SDS011;33995;48.202;16.260;2024-01-27T13:12:34;4.33;;;2.70;;
48205;SDS011;33995;48.202;16.260;2024-01-27T13:15:02;3.20;;;2.50;;
48205;SDS011;33995;48.202;16.260;2024-01-27T13:17:29;3.57;;;2.50;;
48205;SDS011;33995;48.202;16.260;2024-01-27T13:19:56;5.23;;;2.70;;
48205;SDS011;33995;48.202;16.260;2024-01-27T13:22:23;5.77;;;2.70;;
48205;SDS011;33995;48.202;16.260;2024-01-27T13:24:54;3.93;;;2.70;;
48205;SDS011;33995;48.202;16.260;2024-01-27T13:27:23;4.60;;;3.00;;
48205;SDS011;33995;48.202;16.260;2024-01-27T13:29:52;4.20;;;2.50;;
48205;SDS011;33995;48.202;16.260;2024-01-27T13:32:19;5.93;;;3.00;;
48205;SDS011;33995;48.202;16.260;2024-01-27T13:34:46;6.13;;;2.80;;
48205;SDS011;33995;48.202;16.260;2024-01-27T13:37:14;4.07;;;2.70;;
48205;SDS011;33995;48.202;16.260;2024-01-27T13:39:42;4.30;;;2.70;;
48205;SDS011;33995;48.202;16.260;2024-01-27T13:42:09;3.97;;;2.70;;
48205;SDS011;33995;48.202;16.260;2024-01-27T13:44:36;3.93;;;2.57;;
48205;SDS011;33995;48.202;16.260;2024-01-27T13:47:04;6.03;;;2.80;;
48205;SDS011;33995;48.202;16.260;2024-01-27T13:49:31;4.80;;;2.83;;
48205;SDS011;33995;48.202;16.260;2024-01-27T13:51:59;5.10;;;3.97;;
48205;SDS011;33995;48.202;16.260;2024-01-27T13:54:29;4.57;;;3.40;;
48205;SDS011;33995;48.202;16.260;2024-01-27T13:56:56;5.63;;;2.83;;
48205;SDS011;33995;48.202;16.260;2024-01-27T13:59:24;3.73;;;2.63;;
48205;SDS011;33995;48.202;16.260;2024-01-27T14:01:51;4.03;;;2.67;;
48205;SDS011;33995;48.202;16.260;2024-01-27T14:04:19;4.87;;;2.70;;
48205;SDS011;33995;48.202;16.260;2024-01-27T14:06:46;4.70;;;2.67;;
48205;SDS011;33995;48.202;16.260;2024-01-27T14:09:13;6.00;;;3.30;;
48205;SDS011;33995;48.202;16.260;2024-01-27T14:11:41;4.27;;;2.70;;
48205;SDS011;33995;48.202;16.260;2024-01-27T14:14:08;5.17;;;2.90;;
48205;SDS011;33995;48.202;16.260;2024-01-27T14:16:35;6.43;;;2.90;;
48205;SDS011;33995;48.202;16.260;2024-01-27T14:19:02;5.23;;;2.77;;
48205;SDS011;33995;48.202;16.260;2024-01-27T14:21:30;5.40;;;2.67;;
48205;SDS011;33995;48.202;16.260;2024-01-27T14:23:57;4.97;;;3.10;;
48205;SDS011;33995;48.202;16.260;2024-01-27T14:26:29;5.93;;;3.90;;
48205;SDS011;33995;48.202;16.260;2024-01-27T14:28:59;5.20;;;3.73;;
48205;SDS011;33995;48.202;16.260;2024-01-27T14:31:26;6.03;;;4.00;;
48205;SDS011;33995;48.202;16.260;2024-01-27T14:33:53;7.63;;;3.80;;
48205;SDS011;33995;48.202;16.260;2024-01-27T14:36:21;8.00;;;4.00;;
48205;SDS011;33995;48.202;16.260;2024-01-27T14:38:50;5.70;;;4.00;;
48205;SDS011;33995;48.202;16.260;2024-01-27T14:41:17;7.87;;;3.10;;
48205;SDS011;33995;48.202;16.260;2024-01-27T14:43:44;4.50;;;2.80;;